sensor_id;sensor_type;location;lat;lon;timestamp;temperature;humidity
24207;DHT22;12351;52.284;9.160;2024-02-23T00:01:26;9.50;99.90
24207;DHT22;12351;52.284;9.160;2024-02-23T00:04:14;9.40;99.90
24207;DHT22;12351;52.284;9.160;2024-02-23T00:07:02;9.40;99.90
24207;DHT22;12351;52.284;9.160;2024-02-23T00:09:49;9.40;99.90
24207;DHT22;12351;52.284;9.160;2024-02-23T00:12:36;9.40;99.90
24207;DHT22;12351;52.284;9.160;2024-02-23T00:15:23;9.30;99.90
24207;DHT22;12351;52.284;9.160;2024-02-23T00:18:11;9.30;99.90
24207;DHT22;12351;52.284;9.160;2024-02-23T00:20:59;9.30;99.90
24207;DHT22;12351;52.284;9.160;2024-02-23T00:23:45;9.20;99.90
24207;DHT22;12351;52.284;9.160;2024-02-23T00:26:32;9.20;99.90
24207;DHT22;12351;52.284;9.160;2024-02-23T00:29:20;9.30;99.90
24207;DHT22;12351;52.284;9.160;2024-02-23T00:32:07;9.20;99.90
24207;DHT22;12351;52.284;9.160;2024-02-23T00:34:56;9.20;99.90
24207;DHT22;12351;52.284;9.160;2024-02-23T00:37:42;9.20;99.90
24207;DHT22;12351;52.284;9.160;2024-02-23T00:40:30;9.20;99.90
24207;DHT22;12351;52.284;9.160;2024-02-23T00:43:18;9.10;99.90
24207;DHT22;12351;52.284;9.160;2024-02-23T00:46:07;9.20;99.90
24207;DHT22;12351;52.284;9.160;2024-02-23T00:48:55;9.10;99.90
24207;DHT22;12351;52.284;9.160;2024-02-23T00:51:43;9.00;99.90
24207;DHT22;12351;52.284;9.160;2024-02-23T00:54:30;9.10;99.90
24207;DHT22;12351;52.284;9.160;2024-02-23T00:57:17;9.00;99.90
24207;DHT22;12351;52.284;9.160;2024-02-23T01:00:06;9.00;99.90
24207;DHT22;12351;52.284;9.160;2024-02-23T01:02:55;8.90;99.90
24207;DHT22;12351;52.284;9.160;2024-02-23T01:05:44;8.90;99.90
24207;DHT22;12351;52.284;9.160;2024-02-23T01:08:31;8.80;99.90
24207;DHT22;12351;52.284;9.160;2024-02-23T01:11:18;8.70;99.90
24207;DHT22;12351;52.284;9.160;2024-02-23T01:14:05;8.80;99.90
24207;DHT22;12351;52.284;9.160;2024-02-23T01:16:52;8.80;99.90
24207;DHT22;12351;52.284;9.160;2024-02-23T01:19:41;8.60;99.90
24207;DHT22;12351;52.284;9.160;2024-02-23T01:22:28;8.60;99.90
24207;DHT22;12351;52.284;9.160;2024-02-23T01:25:15;8.60;99.90
24207;DHT22;12351;52.284;9.160;2024-02-23T01:28:02;8.30;99.90
24207;DHT22;12351;52.284;9.160;2024-02-23T01:30:49;8.20;99.90
24207;DHT22;12351;52.284;9.160;2024-02-23T01:33:37;8.10;99.90
24207;DHT22;12351;52.284;9.160;2024-02-23T01:36:24;8.00;99.90
24207;DHT22;12351;52.284;9.160;2024-02-23T01:39:12;8.10;99.90
24207;DHT22;12351;52.284;9.160;2024-02-23T01:41:59;8.10;99.90
24207;DHT22;12351;52.284;9.160;2024-02-23T01:44:45;8.00;99.90
24207;DHT22;12351;52.284;9.160;2024-02-23T01:47:32;8.00;99.90
24207;DHT22;12351;52.284;9.160;2024-02-23T01:50:19;7.90;99.90
24207;DHT22;12351;52.284;9.160;2024-02-23T01:53:06;7.90;99.90
24207;DHT22;12351;52.284;9.160;2024-02-23T01:55:54;7.90;99.90
24207;DHT22;12351;52.284;9.160;2024-02-23T01:58:41;7.70;99.90
24207;DHT22;12351;52.284;9.160;2024-02-23T02:01:30;7.70;99.90
24207;DHT22;12351;52.284;9.160;2024-02-23T02:04:17;7.70;99.90
24207;DHT22;12351;52.284;9.160;2024-02-23T02:07:04;7.70;99.90
24207;DHT22;12351;52.284;9.160;2024-02-23T02:09:51;7.60;99.90
24207;DHT22;12351;52.284;9.160;2024-02-23T02:12:40;7.60;99.90
24207;DHT22;12351;52.284;9.160;2024-02-23T02:15:30;7.60;99.90
24207;DHT22;12351;52.284;9.160;2024-02-23T02:18:17;7.60;99.90
24207;DHT22;12351;52.284;9.160;2024-02-23T02:21:04;7.60;99.90
24207;DHT22;12351;52.284;9.160;2024-02-23T02:23:51;7.60;99.90
24207;DHT22;12351;52.284;9.160;2024-02-23T02:26:38;7.50;99.90
24207;DHT22;12351;52.284;9.160;2024-02-23T02:29:25;7.50;99.90
24207;DHT22;12351;52.284;9.160;2024-02-23T02:32:13;7.50;99.90
24207;DHT22;12351;52.284;9.160;2024-02-23T02:35:00;7.50;99.90
24207;DHT22;12351;52.284;9.160;2024-02-23T02:37:47;7.50;99.90
24207;DHT22;12351;52.284;9.160;2024-02-23T02:40:35;7.40;99.90
24207;DHT22;12351;52.284;9.160;2024-02-23T02:43:22;7.40;99.90
24207;DHT22;12351;52.284;9.160;2024-02-23T02:46:09;7.30;99.90
24207;DHT22;12351;52.284;9.160;2024-02-23T02:48:56;7.30;99.90
24207;DHT22;12351;52.284;9.160;2024-02-23T02:51:43;7.30;99.90
24207;DHT22;12351;52.284;9.160;2024-02-23T02:54:31;7.30;99.90
24207;DHT22;12351;52.284;9.160;2024-02-23T02:57:18;7.30;99.90
24207;DHT22;12351;52.284;9.160;2024-02-23T03:02:54;7.30;99.90
24207;DHT22;12351;52.284;9.160;2024-02-23T03:05:42;7.30;99.90
24207;DHT22;12351;52.284;9.160;2024-02-23T03:08:29;7.30;99.90
24207;DHT22;12351;52.284;9.160;2024-02-23T03:11:17;7.20;99.90
24207;DHT22;12351;52.284;9.160;2024-02-23T03:14:04;7.20;99.90
24207;DHT22;12351;52.284;9.160;2024-02-23T03:16:52;7.10;99.90
24207;DHT22;12351;52.284;9.160;2024-02-23T03:19:39;7.10;99.90
24207;DHT22;12351;52.284;9.160;2024-02-23T03:22:26;7.20;99.90
24207;DHT22;12351;52.284;9.160;2024-02-23T03:25:13;7.20;99.90
24207;DHT22;12351;52.284;9.160;2024-02-23T03:28:00;7.10;99.90
24207;DHT22;12351;52.284;9.160;2024-02-23T03:30:47;7.10;99.90
24207;DHT22;12351;52.284;9.160;2024-02-23T03:33:34;7.10;99.90
24207;DHT22;12351;52.284;9.160;2024-02-23T03:36:21;7.10;99.90
24207;DHT22;12351;52.284;9.160;2024-02-23T03:39:09;7.00;99.90
24207;DHT22;12351;52.284;9.160;2024-02-23T03:41:55;7.00;99.90
24207;DHT22;12351;52.284;9.160;2024-02-23T03:44:43;7.00;99.90
24207;DHT22;12351;52.284;9.160;2024-02-23T03:47:29;7.00;99.90
24207;DHT22;12351;52.284;9.160;2024-02-23T03:50:17;7.00;99.90
24207;DHT22;12351;52.284;9.160;2024-02-23T03:53:04;7.00;99.90
24207;DHT22;12351;52.284;9.160;2024-02-23T03:55:51;7.00;99.90
24207;DHT22;12351;52.284;9.160;2024-02-23T03:58:37;6.90;99.90
24207;DHT22;12351;52.284;9.160;2024-02-23T04:01:30;6.90;99.90
24207;DHT22;12351;52.284;9.160;2024-02-23T04:04:17;6.90;99.90
24207;DHT22;12351;52.284;9.160;2024-02-23T04:07:04;6.90;99.90
24207;DHT22;12351;52.284;9.160;2024-02-23T04:09:52;6.90;99.90
24207;DHT22;12351;52.284;9.160;2024-02-23T04:12:40;6.90;99.90
24207;DHT22;12351;52.284;9.160;2024-02-23T04:15:27;6.90;99.90
24207;DHT22;12351;52.284;9.160;2024-02-23T04:18:14;6.90;99.90
24207;DHT22;12351;52.284;9.160;2024-02-23T04:21:01;6.80;99.90
24207;DHT22;12351;52.284;9.160;2024-02-23T04:23:48;6.80;99.90
24207;DHT22;12351;52.284;9.160;2024-02-23T04:26:35;6.80;99.90
24207;DHT22;12351;52.284;9.160;2024-02-23T04:29:23;6.80;99.90
24207;DHT22;12351;52.284;9.160;2024-02-23T04:32:11;6.80;99.90
24207;DHT22;12351;52.284;9.160;2024-02-23T04:34:58;6.80;99.90
24207;DHT22;12351;52.284;9.160;2024-02-23T04:37:45;6.80;99.90
24207;DHT22;12351;52.284;9.160;2024-02-23T04:40:34;6.80;99.90
24207;DHT22;12351;52.284;9.160;2024-02-23T04:43:22;6.70;99.90
24207;DHT22;12351;52.284;9.160;2024-02-23T04:46:09;6.70;99.90
24207;DHT22;12351;52.284;9.160;2024-02-23T04:48:57;6.70;99.90
24207;DHT22;12351;52.284;9.160;2024-02-23T04:51:44;6.70;99.90
24207;DHT22;12351;52.284;9.160;2024-02-23T04:54:32;6.70;99.90
24207;DHT22;12351;52.284;9.160;2024-02-23T04:57:21;6.70;99.90
24207;DHT22;12351;52.284;9.160;2024-02-23T05:00:08;6.70;99.90
24207;DHT22;12351;52.284;9.160;2024-02-23T05:02:55;6.60;99.90
24207;DHT22;12351;52.284;9.160;2024-02-23T05:05:45;6.60;99.90
24207;DHT22;12351;52.284;9.160;2024-02-23T05:08:32;6.60;99.90
24207;DHT22;12351;52.284;9.160;2024-02-23T05:11:20;6.60;99.90
24207;DHT22;12351;52.284;9.160;2024-02-23T05:14:07;6.60;99.90
24207;DHT22;12351;52.284;9.160;2024-02-23T05:16:54;6.60;99.90
24207;DHT22;12351;52.284;9.160;2024-02-23T05:19:42;6.60;99.90
24207;DHT22;12351;52.284;9.160;2024-02-23T05:22:29;6.60;99.90
24207;DHT22;12351;52.284;9.160;2024-02-23T05:25:16;6.60;99.90
24207;DHT22;12351;52.284;9.160;2024-02-23T05:28:02;6.60;99.90
24207;DHT22;12351;52.284;9.160;2024-02-23T05:30:50;6.50;99.90
24207;DHT22;12351;52.284;9.160;2024-02-23T05:33:36;6.50;99.90
24207;DHT22;12351;52.284;9.160;2024-02-23T05:36:24;6.50;99.90
24207;DHT22;12351;52.284;9.160;2024-02-23T05:39:12;6.50;99.90
24207;DHT22;12351;52.284;9.160;2024-02-23T05:42:01;6.50;99.90
24207;DHT22;12351;52.284;9.160;2024-02-23T05:44:47;6.50;99.90
24207;DHT22;12351;52.284;9.160;2024-02-23T05:47:37;6.50;99.90
24207;DHT22;12351;52.284;9.160;2024-02-23T05:50:26;6.50;99.90
24207;DHT22;12351;52.284;9.160;2024-02-23T05:53:14;6.50;99.90
24207;DHT22;12351;52.284;9.160;2024-02-23T05:56:00;6.50;99.90
24207;DHT22;12351;52.284;9.160;2024-02-23T05:58:47;6.50;99.90
24207;DHT22;12351;52.284;9.160;2024-02-23T06:01:35;6.50;99.90
24207;DHT22;12351;52.284;9.160;2024-02-23T06:04:23;6.50;99.90
24207;DHT22;12351;52.284;9.160;2024-02-23T06:07:10;6.40;99.90
24207;DHT22;12351;52.284;9.160;2024-02-23T06:09:57;6.40;99.90
24207;DHT22;12351;52.284;9.160;2024-02-23T06:12:44;6.40;99.90
24207;DHT22;12351;52.284;9.160;2024-02-23T06:15:31;6.40;99.90
24207;DHT22;12351;52.284;9.160;2024-02-23T06:18:18;6.40;99.90
24207;DHT22;12351;52.284;9.160;2024-02-23T06:23:55;6.40;99.90
24207;DHT22;12351;52.284;9.160;2024-02-23T06:26:43;6.40;99.90
24207;DHT22;12351;52.284;9.160;2024-02-23T06:29:31;6.40;99.90
24207;DHT22;12351;52.284;9.160;2024-02-23T06:32:18;6.40;99.90
24207;DHT22;12351;52.284;9.160;2024-02-23T06:35:05;6.40;99.90
24207;DHT22;12351;52.284;9.160;2024-02-23T06:37:53;6.40;99.90
24207;DHT22;12351;52.284;9.160;2024-02-23T06:40:40;6.40;99.90
24207;DHT22;12351;52.284;9.160;2024-02-23T06:43:27;6.40;99.90
24207;DHT22;12351;52.284;9.160;2024-02-23T06:46:13;6.40;99.90
24207;DHT22;12351;52.284;9.160;2024-02-23T06:49:00;6.40;99.90
24207;DHT22;12351;52.284;9.160;2024-02-23T06:51:47;6.40;99.90
24207;DHT22;12351;52.284;9.160;2024-02-23T06:54:35;6.40;99.90
24207;DHT22;12351;52.284;9.160;2024-02-23T06:57:21;6.40;99.90
24207;DHT22;12351;52.284;9.160;2024-02-23T07:00:10;6.30;99.90
24207;DHT22;12351;52.284;9.160;2024-02-23T07:02:57;6.30;99.90
24207;DHT22;12351;52.284;9.160;2024-02-23T07:05:45;6.30;99.90
24207;DHT22;12351;52.284;9.160;2024-02-23T07:08:33;6.30;99.90
24207;DHT22;12351;52.284;9.160;2024-02-23T07:11:20;6.40;99.90
24207;DHT22;12351;52.284;9.160;2024-02-23T07:14:07;6.40;99.90
24207;DHT22;12351;52.284;9.160;2024-02-23T07:16:55;6.40;99.90
24207;DHT22;12351;52.284;9.160;2024-02-23T07:19:42;6.40;99.90
24207;DHT22;12351;52.284;9.160;2024-02-23T07:22:29;6.40;99.90
24207;DHT22;12351;52.284;9.160;2024-02-23T07:25:17;6.40;99.90
24207;DHT22;12351;52.284;9.160;2024-02-23T07:28:06;6.40;99.90
24207;DHT22;12351;52.284;9.160;2024-02-23T07:30:53;6.40;99.90
24207;DHT22;12351;52.284;9.160;2024-02-23T07:33:40;6.40;99.90
24207;DHT22;12351;52.284;9.160;2024-02-23T07:36:28;6.40;99.90
24207;DHT22;12351;52.284;9.160;2024-02-23T07:39:15;6.40;99.90
24207;DHT22;12351;52.284;9.160;2024-02-23T07:42:02;6.40;99.90
24207;DHT22;12351;52.284;9.160;2024-02-23T07:44:51;6.40;99.90
24207;DHT22;12351;52.284;9.160;2024-02-23T07:47:38;6.40;99.90
24207;DHT22;12351;52.284;9.160;2024-02-23T07:50:26;6.40;99.90
24207;DHT22;12351;52.284;9.160;2024-02-23T07:53:12;6.40;99.90
24207;DHT22;12351;52.284;9.160;2024-02-23T07:56:03;6.40;99.90
24207;DHT22;12351;52.284;9.160;2024-02-23T07:58:50;6.40;99.90
24207;DHT22;12351;52.284;9.160;2024-02-23T08:01:37;6.40;99.90
24207;DHT22;12351;52.284;9.160;2024-02-23T08:04:26;6.40;99.90
24207;DHT22;12351;52.284;9.160;2024-02-23T08:10:02;6.50;99.90
24207;DHT22;12351;52.284;9.160;2024-02-23T08:12:51;6.50;99.90
24207;DHT22;12351;52.284;9.160;2024-02-23T08:15:38;6.50;99.90
24207;DHT22;12351;52.284;9.160;2024-02-23T08:18:25;6.50;99.90
24207;DHT22;12351;52.284;9.160;2024-02-23T08:21:12;6.50;99.90
24207;DHT22;12351;52.284;9.160;2024-02-23T08:23:59;6.50;99.90
24207;DHT22;12351;52.284;9.160;2024-02-23T08:26:49;6.50;99.90
24207;DHT22;12351;52.284;9.160;2024-02-23T08:29:37;6.60;99.90
24207;DHT22;12351;52.284;9.160;2024-02-23T08:32:24;6.60;99.90
24207;DHT22;12351;52.284;9.160;2024-02-23T08:35:12;6.60;99.90
24207;DHT22;12351;52.284;9.160;2024-02-23T08:37:59;6.60;99.90
24207;DHT22;12351;52.284;9.160;2024-02-23T08:40:46;6.60;99.90
24207;DHT22;12351;52.284;9.160;2024-02-23T08:43:35;6.60;99.90
24207;DHT22;12351;52.284;9.160;2024-02-23T08:46:22;6.70;99.90
24207;DHT22;12351;52.284;9.160;2024-02-23T08:49:09;6.70;99.90
24207;DHT22;12351;52.284;9.160;2024-02-23T08:51:57;6.70;99.90
24207;DHT22;12351;52.284;9.160;2024-02-23T08:54:45;6.70;99.90
24207;DHT22;12351;52.284;9.160;2024-02-23T08:57:31;6.70;99.90
24207;DHT22;12351;52.284;9.160;2024-02-23T09:00:19;6.70;99.90
24207;DHT22;12351;52.284;9.160;2024-02-23T09:03:06;6.70;99.90
24207;DHT22;12351;52.284;9.160;2024-02-23T09:05:53;6.70;99.90
24207;DHT22;12351;52.284;9.160;2024-02-23T09:08:41;6.80;99.90
24207;DHT22;12351;52.284;9.160;2024-02-23T09:11:28;6.70;99.90
24207;DHT22;12351;52.284;9.160;2024-02-23T09:14:15;6.70;99.90
24207;DHT22;12351;52.284;9.160;2024-02-23T09:17:02;6.70;99.90
24207;DHT22;12351;52.284;9.160;2024-02-23T09:19:49;6.80;99.90
24207;DHT22;12351;52.284;9.160;2024-02-23T09:22:36;6.80;99.90
24207;DHT22;12351;52.284;9.160;2024-02-23T09:25:23;6.80;99.90
24207;DHT22;12351;52.284;9.160;2024-02-23T09:28:10;6.80;99.90
24207;DHT22;12351;52.284;9.160;2024-02-23T09:30:57;6.80;99.90
24207;DHT22;12351;52.284;9.160;2024-02-23T09:33:44;6.90;99.90
24207;DHT22;12351;52.284;9.160;2024-02-23T09:36:32;6.90;99.90
24207;DHT22;12351;52.284;9.160;2024-02-23T09:39:19;7.00;99.90
24207;DHT22;12351;52.284;9.160;2024-02-23T09:42:09;7.00;99.90
24207;DHT22;12351;52.284;9.160;2024-02-23T09:44:59;7.00;99.90
24207;DHT22;12351;52.284;9.160;2024-02-23T09:47:48;7.10;99.90
24207;DHT22;12351;52.284;9.160;2024-02-23T09:50:35;7.20;99.90
24207;DHT22;12351;52.284;9.160;2024-02-23T09:53:24;7.20;99.90
24207;DHT22;12351;52.284;9.160;2024-02-23T09:56:11;7.20;99.90
24207;DHT22;12351;52.284;9.160;2024-02-23T09:59:02;7.30;99.90
24207;DHT22;12351;52.284;9.160;2024-02-23T10:01:49;7.30;99.90
24207;DHT22;12351;52.284;9.160;2024-02-23T10:04:39;7.30;99.90
24207;DHT22;12351;52.284;9.160;2024-02-23T10:07:26;7.40;99.90
24207;DHT22;12351;52.284;9.160;2024-02-23T10:10:13;7.40;99.90
24207;DHT22;12351;52.284;9.160;2024-02-23T10:13:02;7.40;99.90
24207;DHT22;12351;52.284;9.160;2024-02-23T10:15:51;7.40;99.90
24207;DHT22;12351;52.284;9.160;2024-02-23T10:18:39;7.50;99.90
24207;DHT22;12351;52.284;9.160;2024-02-23T10:21:26;7.50;99.90
24207;DHT22;12351;52.284;9.160;2024-02-23T10:24:13;7.60;99.90
24207;DHT22;12351;52.284;9.160;2024-02-23T10:27:03;7.60;99.90
24207;DHT22;12351;52.284;9.160;2024-02-23T10:29:50;7.60;99.90
24207;DHT22;12351;52.284;9.160;2024-02-23T10:32:39;7.60;99.90
24207;DHT22;12351;52.284;9.160;2024-02-23T10:35:26;7.60;99.90
24207;DHT22;12351;52.284;9.160;2024-02-23T10:38:15;7.70;99.90
24207;DHT22;12351;52.284;9.160;2024-02-23T10:41:05;7.70;99.90
24207;DHT22;12351;52.284;9.160;2024-02-23T10:43:53;7.80;99.90
24207;DHT22;12351;52.284;9.160;2024-02-23T10:46:44;7.80;99.90
24207;DHT22;12351;52.284;9.160;2024-02-23T10:49:35;7.90;99.90
24207;DHT22;12351;52.284;9.160;2024-02-23T10:52:24;7.90;99.90
24207;DHT22;12351;52.284;9.160;2024-02-23T10:55:13;7.90;99.90
24207;DHT22;12351;52.284;9.160;2024-02-23T10:58:02;7.90;99.90
24207;DHT22;12351;52.284;9.160;2024-02-23T11:00:49;8.00;99.90
24207;DHT22;12351;52.284;9.160;2024-02-23T11:03:38;8.00;99.90
24207;DHT22;12351;52.284;9.160;2024-02-23T11:06:27;8.00;99.90
24207;DHT22;12351;52.284;9.160;2024-02-23T11:09:14;8.10;99.90
24207;DHT22;12351;52.284;9.160;2024-02-23T11:12:03;8.10;99.90
24207;DHT22;12351;52.284;9.160;2024-02-23T11:14:51;8.10;99.90
24207;DHT22;12351;52.284;9.160;2024-02-23T11:17:38;8.20;99.90
24207;DHT22;12351;52.284;9.160;2024-02-23T11:20:33;8.20;99.90
24207;DHT22;12351;52.284;9.160;2024-02-23T11:23:15;8.20;99.90
24207;DHT22;12351;52.284;9.160;2024-02-23T11:28:48;8.30;99.90
24207;DHT22;12351;52.284;9.160;2024-02-23T11:31:32;8.30;99.90
24207;DHT22;12351;52.284;9.160;2024-02-23T11:34:21;8.30;99.90
24207;DHT22;12351;52.284;9.160;2024-02-23T11:37:11;8.40;99.90
24207;DHT22;12351;52.284;9.160;2024-02-23T11:40:00;8.40;99.90
24207;DHT22;12351;52.284;9.160;2024-02-23T11:42:49;8.40;99.90
24207;DHT22;12351;52.284;9.160;2024-02-23T11:45:36;8.40;99.90
24207;DHT22;12351;52.284;9.160;2024-02-23T11:48:23;8.40;99.90
24207;DHT22;12351;52.284;9.160;2024-02-23T11:51:11;8.50;99.90
24207;DHT22;12351;52.284;9.160;2024-02-23T11:54:01;8.50;99.90
24207;DHT22;12351;52.284;9.160;2024-02-23T11:56:48;8.60;99.90
24207;DHT22;12351;52.284;9.160;2024-02-23T11:59:37;8.70;99.90
24207;DHT22;12351;52.284;9.160;2024-02-23T12:02:24;8.80;99.90
24207;DHT22;12351;52.284;9.160;2024-02-23T12:05:11;8.80;99.90
24207;DHT22;12351;52.284;9.160;2024-02-23T12:07:58;8.90;99.90
24207;DHT22;12351;52.284;9.160;2024-02-23T12:10:45;8.90;99.90
24207;DHT22;12351;52.284;9.160;2024-02-23T12:13:33;9.00;99.90
24207;DHT22;12351;52.284;9.160;2024-02-23T12:16:21;9.10;99.90
24207;DHT22;12351;52.284;9.160;2024-02-23T12:19:09;9.20;99.90
24207;DHT22;12351;52.284;9.160;2024-02-23T12:21:59;9.30;99.90
24207;DHT22;12351;52.284;9.160;2024-02-23T12:24:50;9.40;99.90
24207;DHT22;12351;52.284;9.160;2024-02-23T12:27:37;9.40;99.90
24207;DHT22;12351;52.284;9.160;2024-02-23T12:30:24;9.50;99.90
24207;DHT22;12351;52.284;9.160;2024-02-23T12:33:15;9.50;99.90
24207;DHT22;12351;52.284;9.160;2024-02-23T12:36:03;9.50;99.90
24207;DHT22;12351;52.284;9.160;2024-02-23T12:38:51;9.50;99.90
24207;DHT22;12351;52.284;9.160;2024-02-23T12:41:38;9.60;99.90
24207;DHT22;12351;52.284;9.160;2024-02-23T12:44:25;9.60;99.90
24207;DHT22;12351;52.284;9.160;2024-02-23T12:47:12;9.60;99.90
24207;DHT22;12351;52.284;9.160;2024-02-23T12:50:00;9.60;99.90
24207;DHT22;12351;52.284;9.160;2024-02-23T12:52:47;9.60;99.90
24207;DHT22;12351;52.284;9.160;2024-02-23T12:55:34;9.60;99.90
24207;DHT22;12351;52.284;9.160;2024-02-23T12:58:22;9.60;99.90
24207;DHT22;12351;52.284;9.160;2024-02-23T13:01:11;9.60;99.90
24207;DHT22;12351;52.284;9.160;2024-02-23T13:03:59;9.60;99.90
24207;DHT22;12351;52.284;9.160;2024-02-23T13:06:46;9.60;99.90
24207;DHT22;12351;52.284;9.160;2024-02-23T13:09:33;9.60;99.90
24207;DHT22;12351;52.284;9.160;2024-02-23T13:12:20;9.60;99.90
24207;DHT22;12351;52.284;9.160;2024-02-23T13:15:08;9.60;99.90
24207;DHT22;12351;52.284;9.160;2024-02-23T13:17:55;9.60;99.90
24207;DHT22;12351;52.284;9.160;2024-02-23T13:20:43;9.70;99.90
24207;DHT22;12351;52.284;9.160;2024-02-23T13:23:30;9.70;99.90
24207;DHT22;12351;52.284;9.160;2024-02-23T13:26:17;9.70;99.90
24207;DHT22;12351;52.284;9.160;2024-02-23T13:29:04;9.70;99.90
24207;DHT22;12351;52.284;9.160;2024-02-23T13:31:51;9.70;99.90
24207;DHT22;12351;52.284;9.160;2024-02-23T13:34:38;9.70;99.90
24207;DHT22;12351;52.284;9.160;2024-02-23T13:37:26;9.70;99.90
24207;DHT22;12351;52.284;9.160;2024-02-23T13:40:13;9.70;99.90
24207;DHT22;12351;52.284;9.160;2024-02-23T13:43:03;9.70;99.90
24207;DHT22;12351;52.284;9.160;2024-02-23T13:45:52;9.70;99.90
24207;DHT22;12351;52.284;9.160;2024-02-23T13:48:39;9.70;99.90
24207;DHT22;12351;52.284;9.160;2024-02-23T13:51:26;9.70;99.90
24207;DHT22;12351;52.284;9.160;2024-02-23T13:54:14;9.80;99.90
24207;DHT22;12351;52.284;9.160;2024-02-23T13:57:01;9.80;99.90
24207;DHT22;12351;52.284;9.160;2024-02-23T13:59:48;9.80;99.90
24207;DHT22;12351;52.284;9.160;2024-02-23T14:02:35;9.80;99.90
24207;DHT22;12351;52.284;9.160;2024-02-23T14:05:23;9.80;99.90
24207;DHT22;12351;52.284;9.160;2024-02-23T14:08:11;9.80;99.90
24207;DHT22;12351;52.284;9.160;2024-02-23T14:10:58;9.90;99.90
24207;DHT22;12351;52.284;9.160;2024-02-23T14:13:46;9.90;99.90
24207;DHT22;12351;52.284;9.160;2024-02-23T14:16:33;9.90;99.90
24207;DHT22;12351;52.284;9.160;2024-02-23T14:19:20;10.00;99.90
24207;DHT22;12351;52.284;9.160;2024-02-23T14:22:07;10.00;99.90
24207;DHT22;12351;52.284;9.160;2024-02-23T14:24:55;10.00;99.90
24207;DHT22;12351;52.284;9.160;2024-02-23T14:27:42;10.00;99.90
24207;DHT22;12351;52.284;9.160;2024-02-23T14:30:29;10.00;99.90
24207;DHT22;12351;52.284;9.160;2024-02-23T14:33:16;10.10;99.90
24207;DHT22;12351;52.284;9.160;2024-02-23T14:36:04;10.10;99.90
24207;DHT22;12351;52.284;9.160;2024-02-23T14:38:50;10.00;99.90
24207;DHT22;12351;52.284;9.160;2024-02-23T14:44:26;10.00;99.90
24207;DHT22;12351;52.284;9.160;2024-02-23T14:47:13;10.00;99.90
24207;DHT22;12351;52.284;9.160;2024-02-23T14:50:00;10.00;99.90
24207;DHT22;12351;52.284;9.160;2024-02-23T14:52:47;10.00;99.90
24207;DHT22;12351;52.284;9.160;2024-02-23T14:55:34;10.00;99.90
24207;DHT22;12351;52.284;9.160;2024-02-23T14:58:21;10.00;99.90
24207;DHT22;12351;52.284;9.160;2024-02-23T15:01:08;9.90;99.90
24207;DHT22;12351;52.284;9.160;2024-02-23T15:03:55;9.90;99.90
24207;DHT22;12351;52.284;9.160;2024-02-23T15:06:42;9.90;99.90
24207;DHT22;12351;52.284;9.160;2024-02-23T15:09:29;9.90;99.90
24207;DHT22;12351;52.284;9.160;2024-02-23T15:12:16;9.90;99.90
24207;DHT22;12351;52.284;9.160;2024-02-23T15:15:04;9.80;99.90
24207;DHT22;12351;52.284;9.160;2024-02-23T15:17:52;9.90;99.90
24207;DHT22;12351;52.284;9.160;2024-02-23T15:20:40;9.80;99.90
24207;DHT22;12351;52.284;9.160;2024-02-23T15:23:28;9.80;99.90
24207;DHT22;12351;52.284;9.160;2024-02-23T15:26:15;9.80;99.90
24207;DHT22;12351;52.284;9.160;2024-02-23T15:29:02;9.80;99.90
24207;DHT22;12351;52.284;9.160;2024-02-23T15:31:50;9.80;99.90
24207;DHT22;12351;52.284;9.160;2024-02-23T15:34:37;9.80;99.90
24207;DHT22;12351;52.284;9.160;2024-02-23T15:40:13;9.70;99.90
24207;DHT22;12351;52.284;9.160;2024-02-23T15:43:01;9.70;99.90
24207;DHT22;12351;52.284;9.160;2024-02-23T15:45:48;9.70;99.90
24207;DHT22;12351;52.284;9.160;2024-02-23T15:48:35;9.70;99.90
24207;DHT22;12351;52.284;9.160;2024-02-23T15:51:23;9.60;99.90
24207;DHT22;12351;52.284;9.160;2024-02-23T15:54:10;9.60;99.90
24207;DHT22;12351;52.284;9.160;2024-02-23T15:56:59;9.60;99.90
24207;DHT22;12351;52.284;9.160;2024-02-23T15:59:46;9.60;99.90
24207;DHT22;12351;52.284;9.160;2024-02-23T16:02:36;9.50;99.90
24207;DHT22;12351;52.284;9.160;2024-02-23T16:05:23;9.50;99.90
24207;DHT22;12351;52.284;9.160;2024-02-23T16:08:12;9.50;99.90
24207;DHT22;12351;52.284;9.160;2024-02-23T16:10:59;9.50;99.90
24207;DHT22;12351;52.284;9.160;2024-02-23T16:13:46;9.50;99.90
24207;DHT22;12351;52.284;9.160;2024-02-23T16:16:33;9.40;99.90
24207;DHT22;12351;52.284;9.160;2024-02-23T16:19:21;9.50;99.90
24207;DHT22;12351;52.284;9.160;2024-02-23T16:22:09;9.40;99.90
24207;DHT22;12351;52.284;9.160;2024-02-23T16:24:56;9.40;99.90
24207;DHT22;12351;52.284;9.160;2024-02-23T16:27:44;9.40;99.90
24207;DHT22;12351;52.284;9.160;2024-02-23T16:30:32;9.40;99.90
24207;DHT22;12351;52.284;9.160;2024-02-23T16:33:19;9.30;99.90
24207;DHT22;12351;52.284;9.160;2024-02-23T16:36:06;9.30;99.90
24207;DHT22;12351;52.284;9.160;2024-02-23T16:38:53;9.30;99.90
24207;DHT22;12351;52.284;9.160;2024-02-23T16:41:41;9.20;99.90
24207;DHT22;12351;52.284;9.160;2024-02-23T16:44:28;9.30;99.90
24207;DHT22;12351;52.284;9.160;2024-02-23T16:47:15;9.20;99.90
24207;DHT22;12351;52.284;9.160;2024-02-23T16:50:03;9.20;99.90
24207;DHT22;12351;52.284;9.160;2024-02-23T16:52:54;9.20;99.90
24207;DHT22;12351;52.284;9.160;2024-02-23T16:55:41;9.20;99.90
24207;DHT22;12351;52.284;9.160;2024-02-23T16:58:31;9.20;99.90
24207;DHT22;12351;52.284;9.160;2024-02-23T17:01:20;9.10;99.90
24207;DHT22;12351;52.284;9.160;2024-02-23T17:04:07;9.10;99.90
24207;DHT22;12351;52.284;9.160;2024-02-23T17:06:54;9.10;99.90
24207;DHT22;12351;52.284;9.160;2024-02-23T17:09:43;9.00;99.90
24207;DHT22;12351;52.284;9.160;2024-02-23T17:12:31;9.00;99.90
24207;DHT22;12351;52.284;9.160;2024-02-23T17:15:19;9.00;99.90
24207;DHT22;12351;52.284;9.160;2024-02-23T17:18:06;9.00;99.90
24207;DHT22;12351;52.284;9.160;2024-02-23T17:20:53;9.00;99.90
24207;DHT22;12351;52.284;9.160;2024-02-23T17:23:40;9.00;99.90
24207;DHT22;12351;52.284;9.160;2024-02-23T17:26:28;9.00;99.90
24207;DHT22;12351;52.284;9.160;2024-02-23T17:29:16;9.00;99.90
24207;DHT22;12351;52.284;9.160;2024-02-23T17:32:03;8.90;99.90
24207;DHT22;12351;52.284;9.160;2024-02-23T17:34:50;8.90;99.90
24207;DHT22;12351;52.284;9.160;2024-02-23T17:37:37;8.90;99.90
24207;DHT22;12351;52.284;9.160;2024-02-23T17:40:24;8.90;99.90
24207;DHT22;12351;52.284;9.160;2024-02-23T17:43:14;8.80;99.90
24207;DHT22;12351;52.284;9.160;2024-02-23T17:46:01;8.80;99.90
24207;DHT22;12351;52.284;9.160;2024-02-23T17:48:49;8.80;99.90
24207;DHT22;12351;52.284;9.160;2024-02-23T17:51:37;8.70;99.90
24207;DHT22;12351;52.284;9.160;2024-02-23T17:54:24;8.80;99.90
24207;DHT22;12351;52.284;9.160;2024-02-23T17:57:11;8.70;99.90
24207;DHT22;12351;52.284;9.160;2024-02-23T17:59:59;8.70;99.90
24207;DHT22;12351;52.284;9.160;2024-02-23T18:02:47;8.70;99.90
24207;DHT22;12351;52.284;9.160;2024-02-23T18:05:34;8.60;99.90
24207;DHT22;12351;52.284;9.160;2024-02-23T18:08:22;8.60;99.90
24207;DHT22;12351;52.284;9.160;2024-02-23T18:11:09;8.60;99.90